Time;durP1;ratioP1;P1;durP2;ratioP2;P2;SDS_P1;SDS_P2;PMS_P1;PMS_P2;Temp;Humidity;BMP_temperature;BMP_pressure;BME280_temperature;BME280_humidity;BME280_pressure;Samples;Min_cycle;Max_cycle;Signal;HPM_P1;HPM_P2
2023/10/01 00:00:19;;;;;;;4.45;3.00;;;18.90;70.40;;;;;;4996061;28;20027;-79
2023/10/01 00:02:45;;;;;;;4.22;3.00;;;18.90;70.50;;;;;;4995671;28;20096;-78
2023/10/01 00:05:11;;;;;;;5.10;3.47;;;18.90;70.50;;;;;;4963295;28;20475;-78
2023/10/01 00:07:37;;;;;;;5.22;3.40;;;18.90;70.50;;;;;;4995990;28;20038;-79
2023/10/01 00:10:11;;;;;;;4.35;3.08;;;18.80;70.50;;;;;;5011912;28;20058;-78
2023/10/01 00:12:44;;;;;;;4.88;3.20;;;18.80;70.50;;;;;;5012284;28;20062;-78
2023/10/01 00:15:12;;;;;;;4.60;3.13;;;18.80;70.60;;;;;;4996238;28;20029;-78
2023/10/01 00:17:44;;;;;;;4.97;3.28;;;18.80;70.50;;;;;;4995851;28;20142;-78
2023/10/01 00:20:35;;;;;;;4.80;3.10;;;18.80;70.60;;;;;;4995571;28;20065;-79
2023/10/01 00:23:02;;;;;;;4.65;3.45;;;18.80;70.60;;;;;;4994818;28;20043;-78
2023/10/01 00:25:38;;;;;;;4.80;3.38;;;18.80;70.60;;;;;;4995471;28;20026;-78
2023/10/01 00:28:04;;;;;;;4.95;3.40;;;18.80;70.60;;;;;;4978592;28;20039;-78
2023/10/01 00:30:33;;;;;;;4.97;3.70;;;18.80;70.60;;;;;;4996411;28;20034;-78
2023/10/01 00:33:00;;;;;;;4.80;3.40;;;18.80;70.60;;;;;;4995999;28;20038;-78
2023/10/01 00:35:25;;;;;;;5.47;3.35;;;18.80;70.60;;;;;;4995370;28;20027;-78
2023/10/01 00:37:53;;;;;;;5.70;3.72;;;18.80;70.60;;;;;;4995164;28;20558;-79
2023/10/01 00:40:19;;;;;;;4.38;3.20;;;18.70;70.60;;;;;;4996287;28;20034;-78
2023/10/01 00:42:46;;;;;;;4.25;3.25;;;18.70;70.50;;;;;;4995092;28;20026;-78
2023/10/01 00:45:13;;;;;;;5.38;3.58;;;18.70;70.50;;;;;;4979025;28;20133;-78
2023/10/01 00:47:41;;;;;;;4.07;3.10;;;18.70;70.50;;;;;;4995668;28;20031;-78
2023/10/01 00:50:16;;;;;;;5.22;3.40;;;18.70;70.60;;;;;;5011222;28;20398;-78
2023/10/01 00:52:42;;;;;;;4.78;3.47;;;18.70;70.60;;;;;;4996722;28;20527;-78
2023/10/01 00:55:09;;;;;;;4.93;3.45;;;18.70;70.60;;;;;;4946567;28;20030;-78
2023/10/01 00:57:38;;;;;;;5.35;3.65;;;18.60;70.50;;;;;;4978638;28;20464;-78
2023/10/01 01:00:16;;;;;;;5.00;3.25;;;18.60;70.60;;;;;;4994639;28;20554;-79
2023/10/01 01:03:27;;;;;;;5.75;3.70;;;18.60;70.70;;;;;;4996005;28;20030;-78
2023/10/01 01:05:41;;;;;;;5.65;3.50;;;18.60;70.60;;;;;;4984600;28;20043;-78
2023/10/01 01:08:09;;;;;;;4.93;3.40;;;18.60;70.60;;;;;;4994553;28;20069;-78
2023/10/01 01:10:42;;;;;;;4.78;3.40;;;18.60;70.60;;;;;;4978054;28;20654;-78
2023/10/01 01:13:08;;;;;;;5.45;3.55;;;18.60;70.70;;;;;;4994783;28;20038;-78
2023/10/01 01:15:38;;;;;;;4.82;3.33;;;18.50;70.70;;;;;;4978225;28;20030;-78
2023/10/01 01:18:07;;;;;;;4.70;3.53;;;18.50;70.70;;;;;;5010991;28;20038;-78
2023/10/01 01:20:37;;;;;;;5.40;3.70;;;18.50;70.70;;;;;;4978769;28;20038;-78
2023/10/01 01:23:06;;;;;;;5.20;3.78;;;18.50;70.70;;;;;;4978850;28;20463;-78
2023/10/01 01:25:33;;;;;;;4.50;3.47;;;18.50;70.80;;;;;;4995458;28;20046;-78
2023/10/01 01:27:59;;;;;;;5.30;3.63;;;18.50;70.80;;;;;;4962317;28;20034;-78
2023/10/01 01:30:29;;;;;;;5.95;4.20;;;18.50;70.70;;;;;;4961629;28;20480;-78
2023/10/01 01:32:55;;;;;;;5.38;3.53;;;18.50;70.80;;;;;;4978173;28;20491;-78
2023/10/01 01:35:28;;;;;;;5.40;3.53;;;18.50;70.80;;;;;;4978074;28;20452;-78
2023/10/01 01:37:58;;;;;;;5.30;3.78;;;18.40;70.80;;;;;;4993555;28;20109;-78
2023/10/01 01:40:28;;;;;;;5.25;3.60;;;18.40;70.80;;;;;;4978133;28;20085;-78
2023/10/01 01:43:01;;;;;;;5.00;3.58;;;18.40;70.80;;;;;;5010001;28;20126;-78
2023/10/01 01:45:28;;;;;;;4.55;3.53;;;18.40;70.80;;;;;;5011127;28;20046;-78
2023/10/01 01:47:54;;;;;;;4.88;3.47;;;18.40;70.80;;;;;;4946575;28;20038;-78
2023/10/01 01:50:32;;;;;;;5.13;3.83;;;18.40;70.80;;;;;;4993413;28;20038;-78
2023/10/01 01:52:58;;;;;;;5.78;3.80;;;18.40;70.90;;;;;;4993927;28;20038;-78
2023/10/01 01:55:27;;;;;;;4.85;3.55;;;18.30;70.80;;;;;;4993895;28;20045;-78
2023/10/01 01:58:10;;;;;;;4.50;3.50;;;18.40;70.80;;;;;;5010195;28;20072;-78
2023/10/01 02:01:01;;;;;;;4.85;3.53;;;18.30;71.40;;;;;;5010732;28;20097;-77
2023/10/01 02:03:33;;;;;;;5.70;4.00;;;18.30;70.80;;;;;;4980376;28;20045;-78
2023/10/01 02:06:00;;;;;;;5.07;3.97;;;18.30;70.80;;;;;;5010024;28;20030;-77
2023/10/01 02:11:13;;;;;;;4.80;3.40;;;18.30;70.90;;;;;;4996191;28;20043;-77
2023/10/01 02:13:45;;;;;;;5.55;3.85;;;18.30;70.90;;;;;;4977450;28;20034;-77
2023/10/01 02:21:49;;;;;;;4.72;3.40;;;18.20;71.00;;;;;;4996589;28;20049;-78
2023/10/01 02:24:37;;;;;;;5.70;3.72;;;18.20;71.00;;;;;;5010006;28;20051;-78
2023/10/01 02:27:04;;;;;;;4.00;2.88;;;18.20;71.10;;;;;;4979045;28;20473;-78
2023/10/01 02:29:45;;;;;;;4.68;3.13;;;18.20;71.00;;;;;;4993248;28;20042;-78
2023/10/01 02:32:14;;;;;;;4.75;3.42;;;18.20;71.10;;;;;;4979162;28;20034;-78
2023/10/01 02:34:42;;;;;;;4.80;3.47;;;18.20;71.10;;;;;;5010201;28;20062;-78
2023/10/01 02:37:09;;;;;;;5.22;3.38;;;18.20;71.10;;;;;;5009338;28;20046;-78
2023/10/01 02:39:37;;;;;;;5.38;3.17;;;18.20;71.10;;;;;;4993044;28;20038;-77
2023/10/01 02:44:40;;;;;;;4.85;3.30;;;18.10;71.00;;;;;;5009532;28;20042;-78
2023/10/01 02:47:16;;;;;;;5.38;3.40;;;18.10;71.00;;;;;;5009616;28;20041;-77
2023/10/01 02:49:49;;;;;;;4.50;3.30;;;18.10;71.00;;;;;;4992604;28;20479;-77
2023/10/01 02:52:36;;;;;;;5.53;3.50;;;18.10;71.00;;;;;;4993538;28;20054;-78
2023/10/01 02:55:16;;;;;;;4.30;3.00;;;18.10;71.10;;;;;;4992823;28;20395;-78
2023/10/01 02:57:42;;;;;;;5.15;3.22;;;18.10;71.10;;;;;;5009310;28;20117;-77
2023/10/01 03:00:54;;;;;;;4.57;3.38;;;18.10;71.00;;;;;;4993777;28;20056;-77
2023/10/01 03:02:57;;;;;;;4.60;3.05;;;18.10;71.10;;;;;;4980274;28;20038;-77
2023/10/01 03:07:51;;;;;;;4.03;2.88;;;18.10;71.10;;;;;;4994243;28;20042;-78
2023/10/01 03:10:31;;;;;;;4.53;2.70;;;18.10;71.10;;;;;;4992589;28;20058;-77
2023/10/01 03:13:14;;;;;;;4.43;3.03;;;18.10;71.10;;;;;;4992930;28;20121;-78
2023/10/01 03:15:43;;;;;;;4.80;2.95;;;18.10;71.10;;;;;;5009271;28;20426;-78
2023/10/01 03:18:34;;;;;;;4.80;2.95;;;18.10;71.10;;;;;;4994192;28;20023;-77
2023/10/01 03:26:04;;;;;;;4.45;2.78;;;18.10;71.10;;;;;;4993832;28;20111;-77
2023/10/01 03:28:35;;;;;;;4.80;2.85;;;18.10;71.10;;;;;;5009218;28;20063;-78
2023/10/01 03:31:12;;;;;;;4.80;3.03;;;18.10;71.10;;;;;;5009158;28;20353;-78
2023/10/01 03:33:40;;;;;;;4.53;2.97;;;18.10;71.10;;;;;;4976595;28;20042;-77
2023/10/01 03:36:10;;;;;;;4.30;2.97;;;18.10;71.10;;;;;;4993756;28;20034;-78
2023/10/01 03:38:44;;;;;;;4.63;2.80;;;18.10;71.10;;;;;;4992323;28;20084;-77
2023/10/01 03:41:20;;;;;;;4.75;3.03;;;18.10;71.10;;;;;;4976634;28;20053;-78
2023/10/01 03:43:50;;;;;;;4.80;3.33;;;18.10;71.10;;;;;;4992326;28;20092;-77
2023/10/01 03:51:58;;;;;;;3.92;2.30;;;18.00;70.90;;;;;;4994143;28;19956;-78
2023/10/01 03:54:51;;;;;;;3.88;2.60;;;18.10;70.90;;;;;;5008592;28;20113;-78
2023/10/01 03:57:17;;;;;;;4.00;2.53;;;18.10;71.00;;;;;;4992187;28;20045;-77
2023/10/01 03:59:53;;;;;;;4.05;2.75;;;18.10;71.10;;;;;;4993085;28;20034;-78
2023/10/01 04:05:21;;;;;;;4.53;2.97;;;18.00;71.10;;;;;;4996721;28;20042;-78
2023/10/01 04:07:48;;;;;;;4.50;2.70;;;18.00;71.10;;;;;;4997561;28;20039;-78
2023/10/01 04:10:28;;;;;;;3.75;2.40;;;18.00;71.10;;;;;;4995193;28;20066;-77
2023/10/01 04:13:11;;;;;;;3.67;2.45;;;18.10;71.20;;;;;;4997642;28;20091;-77
2023/10/01 04:15:48;;;;;;;4.95;2.65;;;18.10;71.20;;;;;;4996575;28;20042;-77
2023/10/01 04:21:17;;;;;;;3.47;2.45;;;18.10;71.20;;;;;;5011971;28;20046;-77
2023/10/01 04:23:40;;;;;;;4.75;2.70;;;18.00;71.20;;;;;;4996593;28;20042;-77
2023/10/01 04:26:13;;;;;;;3.85;2.60;;;18.00;71.10;;;;;;4996212;28;20030;-78
2023/10/01 04:28:44;;;;;;;3.10;2.28;;;18.00;71.10;;;;;;4997096;28;20158;-77
2023/10/01 04:31:18;;;;;;;4.28;2.78;;;18.00;71.20;;;;;;5011577;28;20121;-78
2023/10/01 04:33:47;;;;;;;4.72;2.80;;;18.00;71.10;;;;;;4980109;28;20031;-78
2023/10/01 04:36:16;;;;;;;4.30;2.45;;;18.00;71.20;;;;;;4994850;28;20073;-77
2023/10/01 04:38:48;;;;;;;4.60;2.53;;;18.00;71.10;;;;;;4996206;28;20430;-77
2023/10/01 04:41:18;;;;;;;3.65;2.45;;;18.10;71.20;;;;;;4996638;28;20030;-77
2023/10/01 04:46:30;;;;;;;;;;;18.00;71.10;;;;;;4996386;28;20085;-77
2023/10/01 04:48:56;;;;;;;3.00;2.03;;;18.00;71.00;;;;;;4994977;28;19924;-78
2023/10/01 04:51:22;;;;;;;3.35;2.42;;;18.00;70.90;;;;;;4994958;28;20031;-77
2023/10/01 04:53:52;;;;;;;3.90;2.58;;;18.00;71.10;;;;;;5011961;28;20042;-78
2023/10/01 04:56:20;;;;;;;4.47;2.40;;;18.00;71.10;;;;;;5011732;28;20031;-77
2023/10/01 04:58:54;;;;;;;3.75;2.30;;;18.00;71.10;;;;;;4994766;28;20030;-77
2023/10/01 05:01:24;;;;;;;4.03;2.40;;;18.10;71.20;;;;;;4995540;28;20118;-78
2023/10/01 05:03:52;;;;;;;4.97;2.70;;;18.10;71.20;;;;;;5011251;28;20034;-78
2023/10/01 05:06:19;;;;;;;3.97;2.38;;;18.00;71.10;;;;;;4994570;28;20081;-77
2023/10/01 05:08:49;;;;;;;3.75;2.35;;;18.00;71.10;;;;;;4994930;28;20066;-77
2023/10/01 05:11:21;;;;;;;4.20;2.60;;;18.00;71.10;;;;;;4982923;28;20038;-78
2023/10/01 05:13:51;;;;;;;3.70;2.55;;;18.10;71.20;;;;;;4982396;28;20030;-77
2023/10/01 05:16:26;;;;;;;4.45;2.80;;;18.00;71.10;;;;;;4997817;28;20112;-77
2023/10/01 05:19:12;;;;;;;4.15;2.38;;;18.00;71.10;;;;;;4998755;28;20057;-78
2023/10/01 05:21:46;;;;;;;3.28;2.40;;;18.00;71.10;;;;;;5000311;28;20051;-77
2023/10/01 05:24:36;;;;;;;3.47;2.57;;;18.00;71.10;;;;;;5013874;28;20525;-78
2023/10/01 05:27:08;;;;;;;4.60;2.58;;;18.00;71.10;;;;;;4998081;28;20308;-78
2023/10/01 05:29:35;;;;;;;4.05;2.55;;;18.00;71.10;;;;;;4997293;28;20034;-78
2023/10/01 05:32:02;;;;;;;3.40;2.25;;;18.00;71.10;;;;;;4964709;28;20038;-78
2023/10/01 05:34:28;;;;;;;4.35;2.47;;;18.00;71.10;;;;;;4997290;28;20083;-78
2023/10/01 05:37:08;;;;;;;3.75;2.40;;;18.00;71.10;;;;;;4965923;28;20037;-78
2023/10/01 05:39:57;;;;;;;3.90;2.45;;;18.00;71.10;;;;;;5013871;28;20034;-78
2023/10/01 05:42:31;;;;;;;4.35;2.72;;;18.00;71.10;;;;;;5015543;28;20034;-77
2023/10/01 05:44:59;;;;;;;4.50;2.50;;;18.10;71.10;;;;;;4998003;28;20054;-78
2023/10/01 05:47:41;;;;;;;4.18;2.30;;;18.00;71.00;;;;;;4997742;28;20036;-78
2023/10/01 05:50:12;;;;;;;4.10;2.55;;;18.00;71.10;;;;;;5013631;28;20156;-78
2023/10/01 05:52:40;;;;;;;3.90;2.53;;;18.10;71.10;;;;;;4981978;28;20045;-78
2023/10/01 05:55:12;;;;;;;4.15;2.65;;;18.10;71.10;;;;;;5014538;28;20026;-78
2023/10/01 05:57:43;;;;;;;4.00;2.53;;;18.00;71.10;;;;;;5014052;28;20034;-77
2023/10/01 06:00:16;;;;;;;3.13;2.25;;;18.00;71.10;;;;;;5012948;28;20038;-78
2023/10/01 06:03:00;;;;;;;3.28;2.22;;;18.00;71.10;;;;;;5013276;28;20026;-77
2023/10/01 06:05:33;;;;;;;4.38;2.65;;;18.10;71.20;;;;;;5015165;28;20517;-77
2023/10/01 06:08:00;;;;;;;4.10;2.30;;;18.10;71.20;;;;;;5013400;28;20030;-78
2023/10/01 06:10:28;;;;;;;3.75;2.30;;;18.00;71.20;;;;;;4997158;28;20100;-77
2023/10/01 06:12:56;;;;;;;4.70;2.65;;;18.00;71.10;;;;;;5014005;28;20121;-77
2023/10/01 06:15:25;;;;;;;4.25;2.60;;;18.00;71.20;;;;;;4996608;28;20463;-78
2023/10/01 06:17:51;;;;;;;3.55;2.28;;;18.00;71.20;;;;;;4996554;28;20034;-81
2023/10/01 06:20:26;;;;;;;5.07;2.70;;;18.00;71.10;;;;;;4964708;28;20061;-78
2023/10/01 06:22:55;;;;;;;;;;;18.00;71.10;;;;;;4996993;28;20030;-77
2023/10/01 06:25:37;;;;;;;3.97;2.47;;;18.10;71.10;;;;;;4996875;28;20342;-78
2023/10/01 06:28:10;;;;;;;3.63;2.15;;;18.00;71.10;;;;;;4999115;28;20089;-78
2023/10/01 06:30:40;;;;;;;5.82;2.60;;;18.00;71.10;;;;;;4996135;28;20065;-78
2023/10/01 06:33:24;;;;;;;4.55;2.58;;;18.00;71.20;;;;;;5013746;28;20033;-78
2023/10/01 06:38:44;;;;;;;3.92;2.30;;;18.10;71.20;;;;;;4982660;28;20046;-78
2023/10/01 06:41:19;;;;;;;3.95;2.35;;;18.00;71.20;;;;;;4980324;28;20372;-78
2023/10/01 06:43:49;;;;;;;4.38;2.60;;;18.00;71.20;;;;;;4996494;28;20034;-78
2023/10/01 06:46:29;;;;;;;5.20;2.88;;;18.00;71.20;;;;;;4980704;28;20045;-78
2023/10/01 06:49:03;;;;;;;4.47;2.67;;;18.00;71.20;;;;;;4996181;28;20116;-78
2023/10/01 06:51:37;;;;;;;4.55;2.63;;;18.00;71.20;;;;;;5013179;28;20086;-78
2023/10/01 06:54:05;;;;;;;;;;;18.00;71.20;;;;;;4981484;28;20057;-77
2023/10/01 06:56:33;;;;;;;3.45;2.08;;;18.00;71.20;;;;;;4979902;28;19905;-78
2023/10/01 07:01:49;;;;;;;3.88;2.40;;;18.10;71.20;;;;;;4997295;28;20068;-77
2023/10/01 07:04:17;;;;;;;4.53;2.58;;;18.10;71.20;;;;;;4979928;28;20036;-78
2023/10/01 07:06:50;;;;;;;4.18;2.47;;;18.10;71.20;;;;;;5013870;28;20026;-77
2023/10/01 07:09:34;;;;;;;3.60;2.40;;;18.10;71.20;;;;;;5013846;28;20054;-78
2023/10/01 07:12:01;;;;;;;5.05;2.95;;;18.10;71.20;;;;;;5012706;28;20034;-77
2023/10/01 07:14:50;;;;;;;4.60;2.35;;;18.10;71.20;;;;;;4995927;28;20038;-77
2023/10/01 07:17:24;;;;;;;4.90;2.70;;;18.10;71.20;;;;;;4999314;28;20030;-77
2023/10/01 07:20:00;;;;;;;3.88;2.40;;;18.10;71.20;;;;;;4996176;28;20034;-77
2023/10/01 07:22:34;;;;;;;4.10;2.58;;;18.10;71.20;;;;;;5013950;28;20088;-77
2023/10/01 07:25:01;;;;;;;5.03;2.45;;;18.20;71.20;;;;;;4995734;28;20099;-78
2023/10/01 07:27:27;;;;;;;4.18;2.55;;;18.20;71.20;;;;;;4995530;28;20057;-78
2023/10/01 07:29:54;;;;;;;5.72;2.70;;;18.20;71.20;;;;;;4979240;28;20045;-77
2023/10/01 07:32:22;;;;;;;4.95;2.60;;;18.20;71.20;;;;;;4979935;28;20081;-77
2023/10/01 07:34:55;;;;;;;4.80;2.63;;;18.20;71.20;;;;;;5012090;28;20046;-77
2023/10/01 07:37:25;;;;;;;4.70;2.40;;;18.20;71.20;;;;;;4997974;28;20494;-82
2023/10/01 07:39:59;;;;;;;4.43;2.50;;;18.20;71.20;;;;;;5016260;28;20461;-77
2023/10/01 07:42:28;;;;;;;4.85;2.90;;;18.30;71.20;;;;;;4999408;28;20034;-77
2023/10/01 07:44:56;;;;;;;4.35;2.40;;;18.30;71.20;;;;;;4999509;28;20037;-78
2023/10/01 07:47:29;;;;;;;5.18;2.92;;;18.30;71.20;;;;;;5015723;28;20038;-78
2023/10/01 07:50:12;;;;;;;4.75;2.30;;;18.30;71.10;;;;;;4999557;28;20088;-77
2023/10/01 07:52:40;;;;;;;4.95;2.88;;;18.30;71.80;;;;;;4999329;28;20129;-78
2023/10/01 07:55:34;;;;;;;4.25;2.50;;;18.30;71.10;;;;;;4983700;28;20034;-77
2023/10/01 07:58:23;;;;;;;3.53;2.25;;;18.30;71.10;;;;;;4999368;28;20068;-77
2023/10/01 08:00:58;;;;;;;4.95;2.65;;;18.30;71.00;;;;;;4999146;28;20080;-77
2023/10/01 08:06:05;;;;;;;4.93;2.92;;;18.30;71.00;;;;;;4982667;28;20088;-77
2023/10/01 08:08:37;;;;;;;4.65;2.58;;;18.30;71.00;;;;;;5015522;28;20038;-77
2023/10/01 08:11:37;;;;;;;4.22;2.28;;;18.40;71.00;;;;;;4983437;28;20058;-77
2023/10/01 08:13:50;;;;;;;4.55;2.78;;;18.40;71.00;;;;;;4998767;28;20041;-78
2023/10/01 08:16:15;;;;;;;4.25;2.38;;;18.40;71.00;;;;;;4998548;28;20033;-79
2023/10/01 08:18:42;;;;;;;4.80;2.90;;;18.40;71.00;;;;;;4982344;28;20041;-79
2023/10/01 08:21:17;;;;;;;4.28;2.47;;;18.40;71.00;;;;;;4982791;28;20057;-79
2023/10/01 08:23:54;;;;;;;4.63;2.50;;;18.40;71.00;;;;;;5015311;28;20458;-77
2023/10/01 08:29:06;;;;;;;4.05;2.42;;;18.40;71.00;;;;;;5001623;28;20058;-78
2023/10/01 08:34:23;;;;;;;4.55;2.60;;;18.50;71.00;;;;;;5000736;28;20041;-78
2023/10/01 08:36:56;;;;;;;4.97;2.60;;;18.40;70.90;;;;;;5015033;28;20041;-78
2023/10/01 08:42:10;;;;;;;4.07;2.55;;;18.50;71.00;;;;;;5014911;28;20049;-78
2023/10/01 08:44:50;;;;;;;4.13;2.63;;;18.50;70.90;;;;;;4965862;28;20455;-78
2023/10/01 08:49:55;;;;;;;4.97;2.60;;;18.50;70.80;;;;;;4999037;28;20048;-78
2023/10/01 08:52:25;;;;;;;5.38;2.58;;;18.60;70.70;;;;;;5014791;28;20026;-89
2023/10/01 08:54:55;;;;;;;4.40;2.65;;;18.70;70.70;;;;;;5015975;28;20034;-77
2023/10/01 08:57:45;;;;;;;4.35;2.53;;;18.70;70.60;;;;;;5014370;28;20069;-77
2023/10/01 09:00:34;;;;;;;4.25;2.45;;;18.70;70.60;;;;;;5015448;28;20037;-78
2023/10/01 09:03:10;;;;;;;5.13;2.58;;;18.80;70.60;;;;;;5002606;28;20471;-78
2023/10/01 09:05:36;;;;;;;4.90;2.58;;;18.80;70.50;;;;;;4987704;28;20113;-78
2023/10/01 09:08:15;;;;;;;5.10;2.92;;;18.90;70.40;;;;;;5002313;28;20458;-77
2023/10/01 09:10:51;;;;;;;4.63;2.70;;;18.90;70.40;;;;;;5001453;28;20066;-78
2023/10/01 09:13:21;;;;;;;4.90;2.53;;;18.90;70.40;;;;;;5002506;28;20117;-79
2023/10/01 09:16:13;;;;;;;5.50;3.03;;;19.00;70.30;;;;;;5014826;28;20065;-78
2023/10/01 09:19:03;;;;;;;5.05;2.90;;;19.10;71.00;;;;;;4983528;28;20026;-78
2023/10/01 09:21:38;;;;;;;4.50;2.55;;;19.20;70.30;;;;;;5015256;28;20104;-77
2023/10/01 09:24:33;;;;;;;4.65;2.70;;;19.20;70.20;;;;;;4997363;28;20053;-78
2023/10/01 09:27:09;;;;;;;4.00;2.53;;;19.20;70.10;;;;;;4997501;28;20124;-77
2023/10/01 09:29:45;;;;;;;5.28;2.75;;;19.30;70.10;;;;;;4997224;28;20046;-77
2023/10/01 09:32:13;;;;;;;5.40;3.30;;;19.40;70.10;;;;;;4999627;28;20045;-78
2023/10/01 09:34:53;;;;;;;4.95;3.03;;;19.40;70.00;;;;;;4997260;28;20569;-77
2023/10/01 09:37:35;;;;;;;6.20;3.28;;;19.50;70.10;;;;;;4982899;28;20125;-78
2023/10/01 09:40:32;;;;;;;4.35;2.53;;;19.50;70.10;;;;;;4997347;28;20041;-78
2023/10/01 09:42:57;;;;;;;4.18;2.70;;;19.60;70.10;;;;;;5015048;28;20402;-78
2023/10/01 09:45:46;;;;;;;4.72;2.72;;;19.70;70.10;;;;;;4998155;28;20168;-78
2023/10/01 09:48:29;;;;;;;5.88;2.63;;;19.80;70.30;;;;;;5015253;28;20029;-78
2023/10/01 09:51:00;;;;;;;4.90;2.65;;;19.80;70.20;;;;;;4997811;28;20069;-78
2023/10/01 09:53:36;;;;;;;5.07;3.17;;;19.90;70.30;;;;;;4998890;28;20449;-87
2023/10/01 09:56:04;;;;;;;5.15;2.75;;;19.90;70.20;;;;;;4999473;28;20031;-83
2023/10/01 09:58:32;;;;;;;4.45;2.70;;;20.10;70.30;;;;;;4999037;28;20462;-86
2023/10/01 10:01:01;;;;;;;5.80;2.83;;;20.10;70.40;;;;;;5016352;28;20029;-88
2023/10/01 10:03:37;;;;;;;6.15;3.20;;;20.20;70.40;;;;;;5003228;28;20125;-85
2023/10/01 10:06:07;;;;;;;4.53;2.58;;;20.20;70.60;;;;;;5019934;28;20034;-85
2023/10/01 10:08:35;;;;;;;4.82;3.05;;;20.30;70.60;;;;;;5016868;28;20113;-86
2023/10/01 10:11:07;;;;;;;5.32;3.03;;;20.40;70.60;;;;;;4998132;28;20446;-86
2023/10/01 10:13:37;;;;;;;5.07;3.00;;;20.40;70.60;;;;;;4982931;28;20030;-86
2023/10/01 10:19:23;;;;;;;5.55;2.97;;;20.60;70.70;;;;;;5015063;28;20038;-87
2023/10/01 10:24:30;;;;;;;5.10;2.88;;;20.80;70.70;;;;;;5014694;28;20057;-89
2023/10/01 10:26:57;;;;;;;5.22;3.13;;;20.90;70.60;;;;;;5014008;28;20037;-88
2023/10/01 10:29:24;;;;;;;5.00;2.95;;;20.90;70.70;;;;;;5013807;28;20029;-88
2023/10/01 10:32:09;;;;;;;5.10;3.10;;;21.00;70.90;;;;;;5014291;28;20121;-88
2023/10/01 10:34:36;;;;;;;5.90;3.15;;;21.10;71.00;;;;;;4997415;28;20030;-87
2023/10/01 10:37:06;;;;;;;6.47;3.33;;;21.10;71.00;;;;;;5014657;28;20482;-89
2023/10/01 10:39:48;;;;;;;5.68;2.72;;;21.20;71.10;;;;;;4996278;28;20469;-78
2023/10/01 10:42:31;;;;;;;5.75;2.90;;;21.30;71.40;;;;;;5012613;28;20025;-79
2023/10/01 10:45:21;;;;;;;4.75;2.53;;;21.30;71.30;;;;;;5012819;28;20041;-78
2023/10/01 10:48:04;;;;;;;4.70;2.78;;;21.40;71.50;;;;;;5013367;28;20041;-79
2023/10/01 10:50:58;;;;;;;6.15;3.00;;;21.40;71.60;;;;;;5012652;28;20044;-79
2023/10/01 10:53:37;;;;;;;5.07;2.88;;;21.50;71.80;;;;;;4996509;28;20034;-79
2023/10/01 10:56:08;;;;;;;5.35;2.95;;;21.50;71.90;;;;;;5013941;28;20525;-77
2023/10/01 10:58:41;;;;;;;4.40;2.65;;;21.60;72.00;;;;;;4996434;28;20075;-79
2023/10/01 11:01:20;;;;;;;5.53;3.13;;;21.60;72.20;;;;;;4997146;28;20060;-80
2023/10/01 11:03:59;;;;;;;4.43;2.63;;;21.70;72.30;;;;;;4996150;28;20037;-81
2023/10/01 11:06:42;;;;;;;5.47;3.05;;;21.70;72.50;;;;;;5014250;28;20029;-77
2023/10/01 11:09:23;;;;;;;5.15;3.25;;;21.80;72.70;;;;;;4997451;28;20107;-80
2023/10/01 11:11:50;;;;;;;5.10;2.90;;;21.80;72.80;;;;;;5016390;28;20041;-78
2023/10/01 11:14:16;;;;;;;5.38;2.88;;;21.90;72.90;;;;;;5016563;28;20084;-79
2023/10/01 11:16:46;;;;;;;5.57;3.03;;;21.90;72.90;;;;;;5016583;28;20038;-79
2023/10/01 11:19:13;;;;;;;4.78;2.80;;;22.00;73.00;;;;;;4984378;28;20439;-78
2023/10/01 11:21:55;;;;;;;6.45;3.55;;;22.00;73.10;;;;;;4999622;28;20030;-78
2023/10/01 11:24:29;;;;;;;6.63;3.33;;;22.10;73.30;;;;;;5000027;28;20462;-78
2023/10/01 11:27:43;;;;;;;6.07;3.13;;;22.10;73.30;;;;;;5015846;28;20483;-78
2023/10/01 11:35:32;;;;;;;5.97;3.40;;;22.20;73.50;;;;;;5001751;28;20033;-78
2023/10/01 11:38:13;;;;;;;6.20;3.20;;;22.30;73.60;;;;;;5016273;28;20048;-78
2023/10/01 11:43:38;;;;;;;5.93;3.40;;;22.30;73.70;;;;;;5015431;28;20036;-78
2023/10/01 11:46:21;;;;;;;6.50;3.58;;;22.30;73.80;;;;;;5015624;28;20022;-78
2023/10/01 11:49:05;;;;;;;5.88;3.35;;;22.40;74.00;;;;;;4999677;28;20030;-78
2023/10/01 11:51:45;;;;;;;6.15;3.22;;;22.40;73.90;;;;;;5016053;28;20030;-79
2023/10/01 11:54:16;;;;;;;5.97;3.28;;;22.40;73.90;;;;;;5015911;28;20049;-78
2023/10/01 11:57:05;;;;;;;5.40;3.10;;;22.40;73.90;;;;;;5016486;28;20026;-79
2023/10/01 11:59:33;;;;;;;5.63;3.10;;;22.40;73.80;;;;;;4999204;28;20041;-79
2023/10/01 12:04:49;;;;;;;5.97;3.40;;;22.50;73.80;;;;;;5017560;28;20549;-78
2023/10/01 12:07:15;;;;;;;5.35;3.22;;;22.50;73.70;;;;;;4999085;28;20037;-78
2023/10/01 12:09:48;;;;;;;5.65;3.22;;;22.50;73.70;;;;;;5015467;28;20109;-79
2023/10/01 12:12:36;;;;;;;6.65;3.20;;;22.60;73.80;;;;;;5016203;28;20125;-78
2023/10/01 12:17:57;;;;;;;5.53;3.10;;;22.60;73.70;;;;;;5016454;28;20065;-78
2023/10/01 12:20:23;;;;;;;5.30;3.10;;;22.60;73.50;;;;;;5015337;28;20087;-78
2023/10/01 12:25:47;;;;;;;6.47;3.60;;;22.70;73.50;;;;;;5001949;28;20116;-78
2023/10/01 12:28:27;;;;;;;5.70;3.13;;;22.70;73.40;;;;;;4998263;28;20034;-79
2023/10/01 12:31:09;;;;;;;5.07;3.00;;;22.80;73.40;;;;;;5000760;28;20030;-78
2023/10/01 12:33:40;;;;;;;5.18;2.80;;;22.80;73.40;;;;;;5000031;28;20034;-78
2023/10/01 12:36:11;;;;;;;5.10;3.10;;;22.80;73.30;;;;;;5016413;28;20032;-79
2023/10/01 12:38:38;;;;;;;6.50;3.42;;;22.80;73.40;;;;;;4998789;28;20034;-79
2023/10/01 12:41:05;;;;;;;6.03;3.28;;;22.90;73.40;;;;;;4998211;28;20037;-78
2023/10/01 12:43:37;;;;;;;6.85;3.22;;;22.90;73.40;;;;;;4998293;28;20129;-78
2023/10/01 12:46:13;;;;;;;5.80;3.13;;;23.00;73.40;;;;;;5014494;28;20034;-79
2023/10/01 12:51:33;;;;;;;5.45;3.05;;;23.00;73.40;;;;;;5014540;28;20033;-78
2023/10/01 12:53:59;;;;;;;5.50;3.08;;;23.00;73.30;;;;;;4968554;28;20141;-79
2023/10/01 12:56:44;;;;;;;5.53;3.30;;;23.10;73.40;;;;;;5014672;28;20038;-79
2023/10/01 12:59:18;;;;;;;5.65;3.05;;;23.10;73.40;;;;;;5001123;28;20046;-78
2023/10/01 13:01:51;;;;;;;5.20;2.95;;;23.10;73.30;;;;;;4999373;28;20038;-78
2023/10/01 13:04:25;;;;;;;4.70;2.63;;;23.10;73.40;;;;;;5015841;28;20076;-79
2023/10/01 13:07:00;;;;;;;6.97;3.35;;;23.10;73.40;;;;;;4998072;28;20026;-79
2023/10/01 13:12:25;;;;;;;5.40;3.05;;;23.20;73.30;;;;;;4980856;28;20077;-79
2023/10/01 13:18:00;;;;;;;4.70;2.78;;;23.30;73.30;;;;;;5015327;28;20061;-79
2023/10/01 13:23:09;;;;;;;5.15;2.90;;;23.30;73.20;;;;;;5000792;28;20112;-78
2023/10/01 13:25:39;;;;;;;4.65;2.50;;;23.30;73.20;;;;;;4981391;28;20050;-79
2023/10/01 13:28:05;;;;;;;5.90;3.28;;;23.30;73.20;;;;;;5013803;28;20025;-79
2023/10/01 13:31:03;;;;;;;4.80;2.65;;;23.40;73.20;;;;;;4997259;28;20040;-78
2023/10/01 13:33:19;;;;;;;4.72;2.53;;;23.40;73.20;;;;;;5013606;28;20070;-79
2023/10/01 13:35:58;;;;;;;5.75;3.10;;;23.40;73.10;;;;;;4981578;28;20033;-79
2023/10/01 14:11:02;;;;;;;4.70;2.93;;;23.80;72.20;;;;;;4999520;28;20077;-81
2023/10/01 14:13:35;;;;;;;4.78;2.78;;;23.80;72.10;;;;;;5013022;28;20296;-79
2023/10/01 14:16:23;;;;;;;5.60;3.00;;;23.80;72.10;;;;;;5014028;28;20030;-87
2023/10/01 14:18:54;;;;;;;5.47;3.00;;;23.90;71.80;;;;;;5014251;28;20025;-85
2023/10/01 14:21:22;;;;;;;5.63;3.30;;;23.90;71.80;;;;;;4997119;28;20026;-83
2023/10/01 14:23:52;;;;;;;7.95;3.38;;;23.90;71.60;;;;;;4996815;28;20038;-81
2023/10/01 14:26:22;;;;;;;7.50;3.75;;;24.00;71.50;;;;;;4979977;28;20037;-81
2023/10/01 14:28:55;;;;;;;6.78;3.55;;;24.00;71.20;;;;;;4964500;28;20501;-78
2023/10/01 14:34:22;;;;;;;8.00;4.35;;;24.00;70.20;;;;;;4937416;29;20436;-79
2023/10/01 14:36:52;;;;;;;7.13;4.30;;;24.00;69.80;;;;;;4967500;28;20050;-79
2023/10/01 14:39:18;;;;;;;8.82;3.95;;;24.00;69.40;;;;;;4979752;28;20026;-79
2023/10/01 14:41:45;;;;;;;9.88;4.30;;;24.10;69.50;;;;;;4995741;28;20053;-80
2023/10/01 14:44:14;;;;;;;7.40;4.55;;;24.10;69.50;;;;;;5011339;28;20060;-80
2023/10/01 14:46:47;;;;;;;7.10;3.83;;;24.10;69.50;;;;;;5011539;28;20471;-81
2023/10/01 14:49:17;;;;;;;7.78;4.43;;;24.20;69.50;;;;;;4995432;28;20045;-81
2023/10/01 14:51:48;;;;;;;8.20;4.30;;;24.20;69.60;;;;;;5013484;28;20038;-81
2023/10/01 14:54:18;;;;;;;7.90;4.55;;;24.20;69.60;;;;;;5012170;28;20509;-81
2023/10/01 14:56:54;;;;;;;7.30;4.07;;;24.20;69.60;;;;;;5011917;28;20454;-81
2023/10/01 14:59:21;;;;;;;8.27;4.10;;;24.30;69.70;;;;;;4995440;28;20524;-82
2023/10/01 15:01:50;;;;;;;6.78;4.38;;;24.30;69.70;;;;;;4978869;28;20071;-82
2023/10/01 15:04:22;;;;;;;6.80;4.07;;;24.30;69.70;;;;;;4964441;28;20456;-81
2023/10/01 15:06:57;;;;;;;6.22;3.75;;;24.30;69.80;;;;;;5013031;28;20034;-82
2023/10/01 15:09:29;;;;;;;6.68;3.60;;;24.30;69.80;;;;;;5012845;28;20057;-81
2023/10/01 15:11:57;;;;;;;7.00;3.80;;;24.40;69.90;;;;;;5011633;28;20034;-81
2023/10/01 15:14:32;;;;;;;6.57;3.70;;;24.40;69.90;;;;;;4979054;28;20394;-80
2023/10/01 15:16:59;;;;;;;8.73;4.15;;;24.40;69.90;;;;;;5011565;28;20038;-80
2023/10/01 15:19:25;;;;;;;6.38;3.80;;;24.40;70.00;;;;;;4978772;28;20065;-81